createdAt,value
2023-03-21T00:00:43.332Z,28.05
2023-03-21T00:03:12.299Z,32.83
2023-03-21T00:05:42.954Z,34.25
2023-03-21T00:08:12.333Z,34.55
2023-03-21T00:10:43.499Z,37.15
2023-03-21T00:13:17.161Z,37.63
2023-03-21T00:16:17.416Z,40.92
2023-03-21T00:18:47.308Z,38.63
2023-03-21T00:24:09.056Z,33.85
2023-03-21T00:26:39.082Z,32.13
2023-03-21T00:29:08.112Z,36.08
2023-03-21T00:31:37.025Z,40.47
2023-03-21T00:34:06.316Z,40.13
2023-03-21T00:36:35.249Z,35.47
2023-03-21T00:39:05.669Z,31.83
2023-03-21T00:41:42.552Z,26.52
2023-03-21T00:44:16.529Z,25.35
2023-03-21T00:47:00.797Z,24.13
2023-03-21T00:49:36.384Z,25.80
2023-03-21T00:52:17.114Z,27.10
2023-03-21T00:54:53.600Z,30.83
2023-03-21T00:57:37.482Z,39.45
2023-03-21T01:00:13.296Z,46.70
2023-03-21T01:03:04.305Z,58.03
2023-03-21T01:06:00.909Z,60.55
2023-03-21T01:11:23.115Z,57.92
2023-03-21T01:14:04.016Z,58.30
2023-03-21T01:16:34.866Z,60.78
2023-03-21T01:19:11.899Z,58.20
2023-03-21T01:21:45.958Z,57.35
2023-03-21T01:24:16.447Z,57.40
2023-03-21T01:26:46.448Z,56.28
2023-03-21T01:29:16.523Z,60.50
2023-03-21T01:31:46.965Z,57.00
2023-03-21T01:34:17.154Z,61.17
2023-03-21T01:36:47.908Z,60.40
2023-03-21T01:39:21.634Z,61.92
2023-03-21T01:41:52.949Z,57.55
2023-03-21T01:44:25.519Z,55.08
2023-03-21T01:47:12.795Z,54.75
2023-03-21T01:49:54.014Z,53.60
2023-03-21T01:52:37.868Z,54.88
2023-03-21T01:55:15.494Z,52.47
2023-03-21T01:58:08.504Z,49.95
2023-03-21T02:00:52.348Z,52.30
2023-03-21T02:03:39.244Z,45.50
2023-03-21T02:06:42.228Z,40.80
2023-03-21T02:09:41.365Z,34.90
2023-03-21T02:12:19.624Z,34.05
2023-03-21T02:14:51.556Z,29.58
2023-03-21T02:17:48.100Z,32.80
2023-03-21T02:21:03.814Z,47.97
2023-03-21T02:24:21.411Z,28.88
2023-03-21T02:27:10.235Z,26.33
2023-03-21T02:30:28.227Z,24.50
2023-03-21T02:33:09.111Z,23.33
2023-03-21T02:35:54.253Z,24.92
2023-03-21T02:38:37.405Z,27.48
2023-03-21T02:41:22.382Z,24.55
2023-03-21T02:43:53.941Z,30.13
2023-03-21T02:46:28.343Z,32.45
2023-03-21T02:49:27.429Z,22.10
2023-03-21T02:52:12.208Z,20.95
2023-03-21T02:54:48.626Z,24.73
2023-03-21T02:57:27.017Z,25.83
2023-03-21T03:00:16.668Z,26.92
2023-03-21T03:03:02.605Z,32.25
2023-03-21T03:05:42.226Z,25.90
2023-03-21T03:08:43.218Z,21.75
2023-03-21T03:11:37.125Z,23.52
2023-03-21T03:14:49.954Z,22.90
2023-03-21T03:17:28.203Z,22.92
2023-03-21T03:20:16.223Z,25.42
2023-03-21T03:22:52.447Z,20.83
2023-03-21T03:25:42.182Z,21.58
2023-03-21T03:28:20.145Z,19.02
2023-03-21T03:31:07.511Z,19.38
2023-03-21T03:33:48.438Z,19.55
2023-03-21T03:36:31.674Z,17.95
2023-03-21T03:39:16.176Z,19.90
2023-03-21T03:42:27.475Z,18.42
2023-03-21T03:44:54.240Z,18.65
2023-03-21T03:47:56.328Z,18.50
2023-03-21T03:50:48.016Z,20.10
2023-03-21T03:53:35.161Z,21.02
2023-03-21T03:56:08.762Z,20.77
2023-03-21T03:58:45.644Z,21.40
2023-03-21T04:01:20.113Z,19.58
2023-03-21T04:03:56.382Z,16.27
2023-03-21T04:06:30.945Z,15.57
2023-03-21T04:09:03.511Z,15.25
2023-03-21T04:11:35.837Z,15.70
2023-03-21T04:14:05.595Z,15.48
2023-03-21T04:16:36.971Z,14.07
2023-03-21T04:19:06.959Z,13.25
2023-03-21T04:21:37.694Z,14.20
2023-03-21T04:24:08.829Z,13.07
2023-03-21T04:26:39.587Z,13.20
2023-03-21T04:29:30.447Z,13.07
2023-03-21T04:32:18.849Z,14.80
2023-03-21T04:34:56.429Z,14.45
2023-03-21T04:37:26.016Z,15.95
2023-03-21T04:39:55.418Z,17.20
2023-03-21T04:42:24.573Z,14.02
2023-03-21T04:44:53.491Z,16.58
2023-03-21T04:47:22.820Z,15.68
2023-03-21T04:49:52.636Z,14.88
2023-03-21T04:52:23.311Z,14.57
2023-03-21T04:57:23.042Z,13.98
2023-03-21T04:59:52.028Z,14.13
2023-03-21T05:02:20.763Z,15.32
2023-03-21T05:04:49.811Z,14.30
2023-03-21T05:07:18.679Z,15.20
2023-03-21T05:09:47.642Z,14.93
2023-03-21T05:12:20.445Z,15.75
2023-03-21T05:14:49.596Z,16.60
2023-03-21T05:17:24.159Z,21.83
2023-03-21T05:19:53.807Z,27.13
2023-03-21T05:22:25.144Z,23.27
2023-03-21T05:24:56.247Z,17.43
2023-03-21T05:27:55.066Z,26.13
2023-03-21T05:30:29.904Z,31.60
2023-03-21T05:35:37.189Z,28.77
2023-03-21T05:38:11.299Z,24.42
2023-03-21T05:40:51.989Z,23.58
2023-03-21T05:43:21.365Z,22.15
2023-03-21T05:45:50.431Z,24.77
2023-03-21T05:48:20.857Z,24.08
2023-03-21T05:51:08.752Z,23.85
2023-03-21T05:53:38.199Z,23.45
2023-03-21T05:56:07.669Z,19.10
2023-03-21T05:59:02.853Z,17.85
2023-03-21T06:04:15.696Z,15.90
2023-03-21T06:06:45.193Z,15.95
2023-03-21T06:09:14.636Z,15.45
2023-03-21T06:11:51.137Z,14.25
2023-03-21T06:14:28.136Z,12.85
2023-03-21T06:17:19.873Z,14.52
2023-03-21T06:20:09.879Z,13.90
2023-03-21T06:22:47.402Z,13.80
2023-03-21T06:25:16.794Z,12.30
2023-03-21T06:27:45.881Z,13.82
2023-03-21T06:30:16.784Z,16.92
2023-03-21T06:33:08.109Z,11.98
2023-03-21T06:35:38.992Z,14.05
2023-03-21T06:39:07.062Z,15.38
2023-03-21T06:41:40.447Z,14.10
2023-03-21T06:44:09.503Z,13.73
2023-03-21T06:46:47.552Z,13.32
2023-03-21T06:49:20.562Z,12.23
2023-03-21T06:51:49.986Z,13.73
2023-03-21T06:54:22.032Z,14.33
2023-03-21T06:56:58.729Z,14.45
2023-03-21T06:59:32.145Z,14.25
2023-03-21T07:02:21.436Z,15.55
2023-03-21T07:05:05.118Z,16.45
2023-03-21T07:07:34.316Z,16.33
2023-03-21T07:10:03.539Z,15.93
2023-03-21T07:12:38.276Z,17.05
2023-03-21T07:15:34.174Z,16.25
2023-03-21T07:18:03.274Z,16.58
2023-03-21T07:20:34.330Z,16.33
2023-03-21T07:23:03.673Z,16.08
2023-03-21T07:25:33.156Z,17.65
2023-03-21T07:28:02.651Z,15.98
2023-03-21T07:30:31.714Z,17.25
2023-03-21T07:33:04.561Z,16.92
2023-03-21T07:35:34.072Z,18.73
2023-03-21T07:38:03.170Z,16.45
2023-03-21T07:40:32.753Z,18.17
2023-03-21T07:45:35.856Z,15.65
2023-03-21T07:48:09.691Z,16.50
2023-03-21T07:50:38.837Z,15.55
2023-03-21T07:53:09.406Z,15.82
2023-03-21T07:55:38.622Z,16.65
2023-03-21T07:58:07.725Z,16.63
2023-03-21T08:00:37.199Z,15.73
2023-03-21T08:03:06.143Z,16.02
2023-03-21T08:05:38.143Z,15.35
2023-03-21T08:08:08.058Z,14.93
2023-03-21T08:10:37.910Z,15.95
2023-03-21T08:13:06.859Z,17.35
2023-03-21T08:15:35.992Z,16.67
2023-03-21T08:18:05.199Z,15.80
2023-03-21T08:20:34.131Z,16.40
2023-03-21T08:23:03.298Z,15.93
2023-03-21T08:25:32.428Z,17.70
2023-03-21T08:28:01.597Z,18.48
2023-03-21T08:30:31.098Z,17.92
2023-03-21T08:33:01.931Z,18.98
2023-03-21T08:35:32.680Z,16.88
2023-03-21T08:38:04.585Z,17.85
2023-03-21T08:40:34.099Z,17.33
2023-03-21T08:43:02.918Z,19.90
2023-03-21T08:45:32.512Z,18.88
2023-03-21T08:48:01.593Z,17.00
2023-03-21T08:50:32.656Z,16.48
2023-03-21T08:53:01.826Z,16.70
2023-03-21T08:55:32.591Z,17.70
2023-03-21T08:58:03.462Z,18.40
2023-03-21T09:00:32.374Z,15.80
2023-03-21T09:03:01.260Z,16.27
2023-03-21T09:05:30.572Z,16.83
2023-03-21T09:07:59.376Z,15.50
2023-03-21T09:10:29.195Z,17.23
2023-03-21T09:12:58.623Z,14.95
2023-03-21T09:15:30.824Z,14.43
2023-03-21T09:18:14.018Z,13.77
2023-03-21T09:20:46.168Z,14.63
2023-03-21T09:23:16.657Z,15.98
2023-03-21T09:25:47.109Z,12.68
2023-03-21T09:28:17.541Z,12.23
2023-03-21T09:30:49.845Z,7.82
2023-03-21T09:35:56.380Z,7.53
2023-03-21T09:38:31.259Z,7.68
2023-03-21T09:41:00.449Z,7.82
2023-03-21T09:43:58.531Z,10.57
2023-03-21T09:46:53.075Z,7.50
2023-03-21T09:49:40.604Z,8.82
2023-03-21T09:52:24.843Z,8.90
2023-03-21T09:54:56.581Z,9.38
2023-03-21T09:57:45.082Z,9.73
2023-03-21T10:00:30.679Z,8.88
2023-03-21T10:03:11.097Z,8.45
2023-03-21T10:05:48.181Z,8.73
2023-03-21T10:08:28.718Z,7.28
2023-03-21T10:11:05.968Z,6.63
2023-03-21T10:13:43.786Z,5.63
2023-03-21T10:16:17.781Z,6.15
2023-03-21T10:18:47.779Z,5.78
2023-03-21T10:21:58.963Z,6.95
2023-03-21T10:24:28.499Z,6.47
2023-03-21T10:26:58.163Z,6.35
2023-03-21T10:29:31.932Z,6.93
2023-03-21T10:32:01.849Z,6.75
2023-03-21T10:34:43.125Z,6.43
2023-03-21T10:37:14.017Z,7.78
2023-03-21T10:39:46.502Z,7.20
2023-03-21T10:42:37.676Z,7.32
2023-03-21T10:45:18.016Z,8.65
2023-03-21T10:47:50.328Z,7.57
2023-03-21T10:50:25.910Z,7.82
2023-03-21T10:53:01.580Z,7.93
2023-03-21T10:55:41.223Z,8.07
2023-03-21T10:58:19.881Z,8.20
2023-03-21T11:00:50.423Z,7.75
2023-03-21T11:03:37.437Z,9.10
2023-03-21T11:06:06.554Z,9.13
2023-03-21T11:09:03.900Z,9.18
2023-03-21T11:11:50.261Z,9.35
2023-03-21T11:14:47.881Z,9.85
2023-03-21T11:17:22.660Z,8.40
2023-03-21T11:19:57.034Z,10.48
2023-03-21T11:22:31.320Z,9.75
2023-03-21T11:25:07.313Z,11.30
2023-03-21T11:27:36.903Z,11.85
2023-03-21T11:30:06.547Z,12.40
2023-03-21T11:32:39.997Z,12.93
2023-03-21T11:35:22.223Z,13.02
2023-03-21T11:37:56.617Z,12.30
2023-03-21T11:40:31.682Z,13.40
2023-03-21T11:43:03.648Z,12.63
2023-03-21T11:45:37.044Z,11.23
2023-03-21T11:48:16.470Z,10.55
2023-03-21T11:50:52.808Z,11.02
2023-03-21T11:53:57.984Z,10.18
2023-03-21T11:56:52.797Z,9.55
2023-03-21T11:59:29.414Z,10.38
2023-03-21T12:02:23.145Z,9.30
2023-03-21T12:05:22.595Z,10.93
2023-03-21T12:08:09.595Z,11.77
2023-03-21T12:10:44.466Z,10.38
2023-03-21T12:13:31.202Z,10.52
2023-03-21T12:16:14.840Z,10.85
2023-03-21T12:18:58.364Z,12.00
2023-03-21T12:21:57.788Z,10.82
2023-03-21T12:24:34.841Z,10.82
2023-03-21T12:27:26.370Z,11.90
2023-03-21T12:30:20.497Z,11.18
2023-03-21T12:33:23.048Z,12.48
2023-03-21T12:36:12.023Z,11.32
2023-03-21T12:38:42.740Z,11.15
2023-03-21T12:41:24.335Z,12.10
2023-03-21T12:44:00.377Z,13.30
2023-03-21T12:46:38.609Z,13.80
2023-03-21T12:49:42.680Z,14.63
2023-03-21T12:52:28.544Z,13.38
2023-03-21T12:55:09.036Z,13.40
2023-03-21T12:57:57.145Z,13.63
2023-03-21T13:00:50.662Z,13.30
2023-03-21T13:03:42.997Z,13.73
2023-03-21T13:06:19.221Z,13.65
2023-03-21T13:09:10.467Z,12.93
2023-03-21T13:11:39.834Z,13.32
2023-03-21T13:14:18.808Z,14.15
2023-03-21T13:17:01.028Z,13.80
2023-03-21T13:19:57.179Z,14.77
2023-03-21T13:22:28.462Z,14.48
2023-03-21T13:25:21.099Z,14.75
2023-03-21T13:28:05.258Z,14.90
2023-03-21T13:30:34.736Z,13.32
2023-03-21T13:33:14.506Z,14.63
2023-03-21T13:35:46.253Z,15.20
2023-03-21T13:38:15.221Z,13.02
2023-03-21T13:40:51.755Z,15.07
2023-03-21T13:43:44.832Z,12.88
2023-03-21T13:48:59.546Z,15.20
2023-03-21T13:51:38.404Z,13.88
2023-03-21T13:54:10.570Z,14.45
2023-03-21T13:56:48.732Z,16.42
2023-03-21T13:59:42.459Z,18.10
2023-03-21T14:02:31.094Z,17.83
2023-03-21T14:05:21.643Z,18.45
2023-03-21T14:07:59.375Z,18.13
2023-03-21T14:10:39.941Z,18.90
2023-03-21T14:13:13.182Z,18.08
2023-03-21T14:15:55.321Z,18.63
2023-03-21T14:21:37.371Z,18.45
2023-03-21T14:24:08.895Z,17.75
2023-03-21T14:26:41.994Z,16.95
2023-03-21T14:29:26.217Z,16.65
2023-03-21T14:31:57.842Z,16.10
2023-03-21T14:34:30.559Z,17.95
2023-03-21T14:39:30.961Z,17.60
2023-03-21T14:42:09.315Z,18.17
2023-03-21T14:44:54.413Z,17.20
2023-03-21T14:47:29.686Z,17.38
2023-03-21T14:49:59.549Z,17.83
2023-03-21T14:52:34.602Z,19.05
2023-03-21T14:55:11.590Z,17.00
2023-03-21T14:57:41.218Z,18.10
2023-03-21T15:00:22.569Z,17.60
2023-03-21T15:02:53.643Z,17.92
2023-03-21T15:05:38.320Z,18.40
2023-03-21T15:08:17.919Z,19.30
2023-03-21T15:11:16.555Z,18.67
2023-03-21T15:13:56.026Z,20.15
2023-03-21T15:16:25.372Z,20.88
2023-03-21T15:18:54.397Z,20.17
2023-03-21T15:21:37.694Z,19.27
2023-03-21T15:24:17.277Z,21.83
2023-03-21T15:26:48.756Z,22.85
2023-03-21T15:29:19.451Z,21.00
2023-03-21T15:31:49.810Z,22.73
2023-03-21T15:34:30.602Z,24.67
2023-03-21T15:37:06.187Z,25.65
2023-03-21T15:39:38.374Z,32.08
2023-03-21T15:42:25.702Z,32.20
2023-03-21T15:44:58.338Z,33.03
2023-03-21T15:48:00.339Z,31.15
2023-03-21T15:50:58.021Z,41.00
2023-03-21T15:53:27.402Z,45.00
2023-03-21T15:56:02.788Z,45.63
2023-03-21T15:58:43.751Z,45.83
2023-03-21T16:01:27.163Z,45.33
2023-03-21T16:04:07.100Z,46.85
2023-03-21T16:06:39.055Z,47.75
2023-03-21T16:09:10.991Z,46.28
2023-03-21T16:11:43.190Z,51.80
2023-03-21T16:14:13.016Z,53.55
2023-03-21T16:16:42.150Z,51.88
2023-03-21T16:19:11.450Z,44.55
2023-03-21T16:21:40.379Z,45.63
2023-03-21T16:24:11.678Z,44.25
2023-03-21T16:26:48.542Z,39.25
2023-03-21T16:29:19.503Z,34.88
2023-03-21T16:31:49.864Z,35.47
2023-03-21T16:34:18.994Z,34.17
2023-03-21T16:36:48.280Z,37.30
2023-03-21T16:39:23.120Z,36.47
2023-03-21T16:41:52.430Z,43.70
2023-03-21T16:44:21.753Z,44.85
2023-03-21T16:46:51.289Z,52.45
2023-03-21T16:49:24.805Z,54.70
2023-03-21T16:51:56.800Z,51.72
2023-03-21T16:54:25.914Z,50.75
2023-03-21T16:56:56.697Z,59.40
2023-03-21T16:59:25.907Z,57.90
2023-03-21T17:01:54.586Z,59.67
2023-03-21T17:04:25.271Z,59.33
2023-03-21T17:06:55.258Z,59.00
2023-03-21T17:09:28.208Z,58.30
2023-03-21T17:11:57.233Z,61.72
2023-03-21T17:14:25.938Z,65.85
2023-03-21T17:16:56.207Z,59.85
2023-03-21T17:19:27.333Z,54.55
2023-03-21T17:21:56.814Z,56.53
2023-03-21T17:24:27.261Z,54.85
2023-03-21T17:26:58.380Z,55.70
2023-03-21T17:29:27.699Z,50.03
2023-03-21T17:31:56.517Z,50.97
2023-03-21T17:34:27.007Z,51.85
2023-03-21T17:36:56.250Z,51.58
2023-03-21T17:39:27.504Z,48.90
2023-03-21T17:41:57.866Z,52.30
2023-03-21T17:44:26.905Z,52.40
2023-03-21T17:46:55.656Z,53.72
2023-03-21T17:49:25.126Z,53.75
2023-03-21T17:51:54.411Z,50.00
2023-03-21T17:54:23.468Z,48.45
2023-03-21T17:56:52.739Z,48.22
2023-03-21T17:59:21.657Z,45.08
2023-03-21T18:01:50.370Z,46.30
2023-03-21T18:04:20.852Z,42.40
2023-03-21T18:06:50.185Z,43.35
2023-03-21T18:09:21.707Z,40.45
2023-03-21T18:11:50.878Z,43.23
2023-03-21T18:14:27.917Z,44.80
2023-03-21T18:16:58.558Z,44.42
2023-03-21T18:19:28.206Z,44.47
2023-03-21T18:21:57.634Z,43.25
2023-03-21T18:24:26.717Z,41.42
2023-03-21T18:26:55.875Z,43.13
2023-03-21T18:32:13.963Z,43.67
2023-03-21T18:34:42.842Z,42.72
2023-03-21T18:37:13.452Z,43.47
2023-03-21T18:39:44.907Z,42.45
2023-03-21T18:42:17.765Z,43.60
2023-03-21T18:44:49.045Z,43.17
2023-03-21T18:47:18.112Z,41.30
2023-03-21T18:50:13.778Z,36.75
2023-03-21T18:52:36.756Z,36.72
2023-03-21T18:55:07.254Z,35.95
2023-03-21T18:57:38.282Z,33.47
2023-03-21T19:00:13.711Z,32.72
2023-03-21T19:02:47.536Z,31.70
2023-03-21T19:05:19.659Z,32.67
2023-03-21T19:07:48.979Z,30.77
2023-03-21T19:10:21.607Z,29.33
2023-03-21T19:12:52.637Z,29.15
2023-03-21T19:15:23.676Z,31.83
2023-03-21T19:20:47.955Z,32.30
2023-03-21T19:23:17.741Z,43.35
2023-03-21T19:25:48.009Z,42.78
2023-03-21T19:28:16.828Z,40.60
2023-03-21T19:30:50.156Z,61.15
2023-03-21T19:33:21.012Z,60.88
2023-03-21T19:36:08.935Z,53.33
2023-03-21T19:38:40.614Z,64.03
2023-03-21T19:41:09.379Z,74.30
2023-03-21T19:43:40.137Z,73.20
2023-03-21T19:46:10.212Z,48.10
2023-03-21T19:48:39.197Z,42.78
2023-03-21T19:51:26.990Z,36.85
2023-03-21T19:53:57.235Z,40.00
2023-03-21T19:56:27.363Z,45.88
2023-03-21T19:58:57.556Z,54.05
2023-03-21T20:01:27.097Z,52.95
2023-03-21T20:03:56.451Z,53.10
2023-03-21T20:06:25.666Z,57.58
2023-03-21T20:09:41.425Z,60.25
2023-03-21T20:11:44.766Z,64.45
2023-03-21T20:14:13.535Z,65.03
2023-03-21T20:16:43.789Z,60.35
2023-03-21T20:19:15.688Z,63.08
2023-03-21T20:21:52.807Z,64.88
2023-03-21T20:24:23.853Z,67.03
2023-03-21T20:26:54.512Z,67.22
2023-03-21T20:30:33.052Z,93.43
2023-03-21T20:32:12.944Z,82.28
2023-03-21T20:34:41.839Z,97.32
2023-03-21T20:37:13.334Z,63.25
2023-03-21T20:39:43.556Z,58.10
2023-03-21T20:42:12.436Z,57.05
2023-03-21T20:44:57.978Z,62.92
2023-03-21T20:47:28.603Z,65.50
2023-03-21T20:50:00.775Z,55.67
2023-03-21T20:55:19.681Z,34.22
2023-03-21T20:57:48.995Z,30.42
2023-03-21T21:00:18.901Z,31.15
2023-03-21T21:02:49.772Z,32.28
2023-03-21T21:05:35.904Z,38.67
2023-03-21T21:08:05.154Z,28.38
2023-03-21T21:10:34.995Z,27.77
2023-03-21T21:13:06.376Z,22.02
2023-03-21T21:15:35.633Z,27.42
2023-03-21T21:18:07.040Z,20.98
2023-03-21T21:20:38.814Z,25.50
2023-03-21T21:23:09.594Z,23.38
2023-03-21T21:25:39.583Z,28.52
2023-03-21T21:28:10.380Z,26.65
2023-03-21T21:30:42.141Z,32.85
2023-03-21T21:33:11.181Z,26.10
2023-03-21T21:35:40.291Z,21.15
2023-03-21T21:38:09.275Z,21.27
2023-03-21T21:40:38.306Z,20.58
2023-03-21T21:43:07.707Z,20.67
2023-03-21T21:45:37.865Z,20.90
2023-03-21T21:48:07.685Z,20.88
2023-03-21T21:50:37.767Z,20.30
2023-03-21T21:53:07.285Z,19.70
2023-03-21T21:55:37.202Z,20.63
2023-03-21T21:58:09.372Z,19.67
2023-03-21T22:00:38.599Z,19.95
2023-03-21T22:03:07.601Z,19.33
2023-03-21T22:05:36.725Z,19.58
2023-03-21T22:08:06.102Z,19.20
2023-03-21T22:10:35.062Z,18.42
2023-03-21T22:13:03.946Z,18.65
2023-03-21T22:15:34.215Z,19.35
2023-03-21T22:18:03.379Z,22.50
2023-03-21T22:20:32.982Z,18.00
2023-03-21T22:23:02.013Z,19.40
2023-03-21T22:25:34.031Z,33.10
2023-03-21T22:28:03.054Z,35.95
2023-03-21T22:30:32.068Z,42.35
2023-03-21T22:33:09.168Z,46.85
2023-03-21T22:35:39.219Z,43.53
2023-03-21T22:38:08.173Z,42.08
2023-03-21T22:40:37.395Z,45.40
2023-03-21T22:43:06.543Z,44.05
2023-03-21T22:45:36.182Z,40.50
2023-03-21T22:48:05.574Z,43.90
2023-03-21T22:50:34.683Z,42.95
2023-03-21T22:53:03.533Z,40.30
2023-03-21T22:55:32.528Z,38.47
2023-03-21T22:58:01.253Z,41.50
2023-03-21T23:00:30.637Z,38.50
2023-03-21T23:03:00.573Z,34.75
2023-03-21T23:05:29.831Z,34.00
2023-03-21T23:07:58.976Z,34.10
2023-03-21T23:10:27.938Z,33.28
2023-03-21T23:12:56.922Z,32.97
2023-03-21T23:15:26.136Z,33.78
2023-03-21T23:17:54.919Z,34.58
2023-03-21T23:20:24.120Z,33.50
2023-03-21T23:22:52.880Z,34.08
2023-03-21T23:25:22.019Z,39.55
2023-03-21T23:27:50.818Z,45.10
2023-03-21T23:30:19.848Z,47.78
2023-03-21T23:32:48.709Z,49.08
2023-03-21T23:35:17.887Z,49.90
2023-03-21T23:37:53.101Z,50.92
2023-03-21T23:40:22.683Z,49.15
2023-03-21T23:42:51.435Z,51.95
2023-03-21T23:45:20.403Z,50.33
2023-03-21T23:47:49.371Z,47.15
2023-03-21T23:50:18.581Z,49.08
2023-03-21T23:52:47.258Z,46.10
2023-03-21T23:55:16.373Z,44.35
2023-03-21T23:57:45.204Z,43.80
